Time;durP1;ratioP1;P1;durP2;ratioP2;P2;SDS_P1;SDS_P2;PMS_P1;PMS_P2;Temp;Humidity;BMP_temperature;BMP_pressure;BME280_temperature;BME280_humidity;BME280_pressure;Samples;Min_cycle;Max_cycle;Signal;HPM_P1;HPM_P2
2022/06/20 00:01:40;;;;;;;6.82;1.75;;;14.40;99.90;;;;;;4183833;28;20091;-84
2022/06/20 00:03:44;;;;;;;7.32;1.52;;;14.40;99.90;;;;;;4184011;28;20052;-84
2022/06/20 00:05:45;;;;;;;5.68;1.00;;;14.40;99.90;;;;;;4183994;28;20056;-83
2022/06/20 00:07:46;;;;;;;4.10;1.08;;;14.40;99.90;;;;;;4182234;28;20052;-83
2022/06/20 00:09:47;;;;;;;6.35;1.00;;;14.40;99.90;;;;;;4198387;28;20078;-83
2022/06/20 00:11:50;;;;;;;4.38;1.13;;;14.40;99.90;;;;;;4183419;28;20044;-84
2022/06/20 00:13:54;;;;;;;9.38;1.20;;;14.40;99.90;;;;;;4183459;28;20056;-84
2022/06/20 00:15:56;;;;;;;6.47;1.40;;;14.40;99.90;;;;;;4183607;28;20056;-84
2022/06/20 00:17:58;;;;;;;3.95;0.90;;;14.40;99.90;;;;;;4182748;28;20123;-83
2022/06/20 00:19:58;;;;;;;4.75;1.27;;;14.40;99.90;;;;;;4183323;28;20048;-83
2022/06/20 00:21:59;;;;;;;5.88;0.93;;;14.40;99.90;;;;;;4183303;28;20412;-84
2022/06/20 00:24:00;;;;;;;4.72;1.20;;;14.40;99.90;;;;;;4183558;28;20420;-83
2022/06/20 00:26:00;;;;;;;3.55;1.15;;;14.40;99.90;;;;;;4183548;28;20045;-84
2022/06/20 00:28:01;;;;;;;8.82;2.45;;;14.40;99.90;;;;;;4183450;28;20037;-83
2022/06/20 00:30:03;;;;;;;5.00;1.00;;;14.40;99.90;;;;;;4181486;28;20049;-84
2022/06/20 00:32:05;;;;;;;5.97;1.23;;;14.40;99.90;;;;;;4183408;28;20093;-84
2022/06/20 00:34:08;;;;;;;8.65;1.30;;;14.40;99.90;;;;;;4181885;28;20503;-84
2022/06/20 00:36:09;;;;;;;2.65;1.17;;;14.40;99.90;;;;;;4182891;28;20080;-83
2022/06/20 00:38:17;;;;;;;4.13;1.17;;;14.30;99.90;;;;;;4182787;28;20083;-84
2022/06/20 00:40:40;;;;;;;5.47;0.93;;;14.40;99.90;;;;;;4182219;28;20052;-83
2022/06/20 00:42:41;;;;;;;5.40;1.13;;;14.40;99.90;;;;;;4182749;28;20485;-84
2022/06/20 00:44:49;;;;;;;6.75;1.23;;;14.40;99.90;;;;;;4182454;28;20098;-83
2022/06/20 00:46:56;;;;;;;5.18;0.90;;;14.40;99.90;;;;;;4182678;28;20056;-83
2022/06/20 00:49:24;;;;;;;4.35;0.90;;;14.30;99.90;;;;;;4182969;28;20045;-83
2022/06/20 00:51:39;;;;;;;7.78;2.00;;;14.30;99.90;;;;;;4181507;28;20048;-84
2022/06/20 00:53:46;;;;;;;3.28;0.90;;;14.30;99.90;;;;;;4183045;28;20045;-84
2022/06/20 00:55:51;;;;;;;4.00;1.10;;;14.30;99.90;;;;;;4182408;28;20420;-84
2022/06/20 00:58:01;;;;;;;4.75;0.90;;;14.30;99.90;;;;;;4182140;28;20051;-84
2022/06/20 01:00:15;;;;;;;3.47;1.02;;;14.30;99.90;;;;;;4197816;28;20049;-84
2022/06/20 01:02:24;;;;;;;10.00;1.77;;;14.20;99.90;;;;;;4182663;28;20048;-84
2022/06/20 01:04:40;;;;;;;9.50;1.60;;;14.20;99.90;;;;;;4182352;28;20049;-84
2022/06/20 01:07:08;;;;;;;3.83;0.88;;;14.20;99.90;;;;;;4182277;28;20401;-84
2022/06/20 01:09:12;;;;;;;5.97;0.95;;;14.10;99.90;;;;;;4182136;28;20088;-84
2022/06/20 01:11:21;;;;;;;4.57;1.40;;;14.10;99.90;;;;;;4181516;28;20124;-84
2022/06/20 01:13:23;;;;;;;7.10;1.10;;;14.10;99.90;;;;;;4181296;28;20102;-84
2022/06/20 01:15:31;;;;;;;6.80;1.58;;;14.00;99.90;;;;;;4182056;28;20041;-84
2022/06/20 01:17:38;;;;;;;4.55;1.10;;;13.90;99.90;;;;;;4181787;28;20123;-83
2022/06/20 01:20:17;;;;;;;4.47;0.95;;;13.90;99.90;;;;;;4180858;28;20068;-84
2022/06/20 01:22:31;;;;;;;4.15;0.90;;;13.90;99.90;;;;;;4180040;28;20053;-84
2022/06/20 01:24:47;;;;;;;8.10;1.65;;;13.80;99.90;;;;;;4197473;28;20101;-84
2022/06/20 01:27:09;;;;;;;3.53;1.30;;;13.70;99.90;;;;;;4180845;28;20482;-84
2022/06/20 01:29:11;;;;;;;2.72;1.17;;;13.70;99.90;;;;;;4181879;28;20127;-84
2022/06/20 01:31:14;;;;;;;5.70;0.98;;;13.70;99.90;;;;;;4182355;28;20367;-84
2022/06/20 01:33:18;;;;;;;6.00;1.48;;;13.70;99.90;;;;;;4182496;28;20444;-84
2022/06/20 01:37:41;;;;;;;5.75;0.95;;;13.60;99.90;;;;;;4182174;28;20559;-84
2022/06/20 01:39:43;;;;;;;3.15;0.90;;;13.60;99.90;;;;;;4180565;28;20053;-84
2022/06/20 01:44:06;;;;;;;5.88;1.13;;;13.50;99.90;;;;;;4182249;28;20061;-84
2022/06/20 01:46:10;;;;;;;4.53;1.27;;;13.50;99.90;;;;;;4181093;28;20049;-84
2022/06/20 01:48:17;;;;;;;2.97;0.90;;;13.40;99.90;;;;;;4182019;28;20106;-84
2022/06/20 01:50:18;;;;;;;3.72;1.10;;;13.40;99.90;;;;;;4180853;28;20044;-84
2022/06/20 01:52:42;;;;;;;2.03;0.73;;;13.30;99.90;;;;;;4181461;28;20114;-85
2022/06/20 01:54:51;;;;;;;3.13;0.90;;;13.30;99.90;;;;;;4181019;28;20049;-84
2022/06/20 01:56:53;;;;;;;4.32;1.17;;;13.20;99.90;;;;;;4182153;28;20505;-84
2022/06/20 01:59:04;;;;;;;3.75;0.90;;;13.20;99.90;;;;;;4182096;28;20482;-84
2022/06/20 02:01:05;;;;;;;7.05;1.95;;;13.30;99.90;;;;;;4181666;28;20106;-84
2022/06/20 02:03:11;;;;;;;5.63;1.20;;;13.30;99.90;;;;;;4182014;28;20114;-84
2022/06/20 02:05:17;;;;;;;8.52;0.95;;;13.30;99.90;;;;;;4182131;28;20060;-84
2022/06/20 02:07:18;;;;;;;3.95;1.00;;;13.20;99.90;;;;;;4181977;28;20513;-84
2022/06/20 02:09:20;;;;;;;2.67;1.30;;;13.20;99.90;;;;;;4181782;28;20033;-84
2022/06/20 02:11:34;;;;;;;7.22;1.00;;;13.20;99.90;;;;;;4181758;28;20060;-84
2022/06/20 02:13:41;;;;;;;3.67;0.90;;;13.20;99.90;;;;;;4181933;28;20048;-84
2022/06/20 02:15:43;;;;;;;4.10;1.35;;;13.20;99.90;;;;;;4181418;28;20057;-84
2022/06/20 02:17:45;;;;;;;3.10;1.10;;;13.20;99.90;;;;;;4181727;28;20515;-83
2022/06/20 02:19:50;;;;;;;5.32;1.10;;;13.20;99.90;;;;;;4180144;28;20547;-83
2022/06/20 02:21:57;;;;;;;9.10;1.70;;;13.20;99.90;;;;;;4180455;28;20083;-83
2022/06/20 02:24:05;;;;;;;6.88;1.30;;;13.20;99.90;;;;;;4181756;28;20045;-83
2022/06/20 02:26:07;;;;;;;4.50;1.10;;;13.20;99.90;;;;;;4180120;28;20439;-84
2022/06/20 02:28:12;;;;;;;4.05;1.33;;;13.20;99.90;;;;;;4181731;28;20481;-83
2022/06/20 02:30:14;;;;;;;3.47;1.00;;;13.20;99.90;;;;;;4181710;28;20041;-84
2022/06/20 02:32:20;;;;;;;6.15;1.00;;;13.20;99.90;;;;;;4181405;28;20049;-84
2022/06/20 02:34:26;;;;;;;8.80;1.10;;;13.10;99.90;;;;;;4180192;28;20481;-83
2022/06/20 02:36:26;;;;;;;6.43;2.40;;;13.10;99.90;;;;;;4181492;28;20548;-84
2022/06/20 02:38:28;;;;;;;6.97;1.17;;;13.20;99.90;;;;;;4179447;28;20098;-84
2022/06/20 02:40:30;;;;;;;5.35;0.70;;;13.20;99.90;;;;;;4180269;28;20053;-84
2022/06/20 02:42:50;;;;;;;8.88;1.00;;;13.10;99.90;;;;;;4181450;28;20041;-84
2022/06/20 02:44:52;;;;;;;2.78;1.15;;;13.10;99.90;;;;;;4181384;28;20045;-83
2022/06/20 02:46:54;;;;;;;4.07;1.50;;;13.10;99.90;;;;;;4180827;28;20052;-83
2022/06/20 02:48:56;;;;;;;4.70;1.20;;;13.00;99.90;;;;;;4179905;28;20455;-83
2022/06/20 02:51:01;;;;;;;7.18;1.20;;;13.00;99.90;;;;;;4181331;28;20049;-83
2022/06/20 02:53:07;;;;;;;3.70;0.95;;;13.00;99.90;;;;;;4181012;28;20499;-83
2022/06/20 02:55:10;;;;;;;5.65;1.10;;;12.80;99.90;;;;;;4181155;28;20052;-83
2022/06/20 02:57:15;;;;;;;5.38;1.25;;;12.90;99.90;;;;;;4181131;28;20095;-85
2022/06/20 02:59:21;;;;;;;4.35;0.95;;;12.80;99.90;;;;;;4180863;28;20516;-84
2022/06/20 03:01:25;;;;;;;6.70;1.38;;;12.80;99.90;;;;;;4179188;28;20456;-85
2022/06/20 03:03:31;;;;;;;4.95;1.15;;;12.70;99.90;;;;;;4180827;28;20075;-85
2022/06/20 03:05:31;;;;;;;6.85;1.50;;;12.70;99.90;;;;;;4179780;28;20056;-85
2022/06/20 03:07:40;;;;;;;7.25;1.10;;;12.70;99.90;;;;;;4180795;28;20133;-85
2022/06/20 03:09:47;;;;;;;4.78;1.08;;;12.70;99.90;;;;;;4180341;28;20040;-83
2022/06/20 03:11:48;;;;;;;4.20;1.55;;;12.70;99.90;;;;;;4180716;28;20462;-83
2022/06/20 03:13:50;;;;;;;10.10;2.20;;;12.70;99.90;;;;;;4180829;28;20041;-84
2022/06/20 03:15:52;;;;;;;7.82;1.25;;;12.70;99.90;;;;;;4180696;28;20516;-83
2022/06/20 03:17:53;;;;;;;4.68;1.00;;;12.60;99.90;;;;;;4180703;28;20049;-84
2022/06/20 03:19:58;;;;;;;6.85;1.60;;;12.60;99.90;;;;;;4180543;28;20049;-84
2022/06/20 03:22:06;;;;;;;4.55;1.63;;;12.60;99.90;;;;;;4179332;28;20452;-84
2022/06/20 03:24:07;;;;;;;3.13;1.10;;;12.60;99.90;;;;;;4180946;28;20044;-84
2022/06/20 03:26:15;;;;;;;10.15;1.60;;;12.60;99.90;;;;;;4181048;28;20097;-84
2022/06/20 03:28:19;;;;;;;4.68;1.58;;;12.60;99.90;;;;;;4180797;28;20049;-84
2022/06/20 03:30:30;;;;;;;6.57;1.33;;;12.50;99.90;;;;;;4180778;28;20045;-85
2022/06/20 03:32:31;;;;;;;7.88;1.55;;;12.50;99.90;;;;;;4179507;28;20045;-84
2022/06/20 03:34:33;;;;;;;5.68;1.85;;;12.50;99.90;;;;;;4180713;28;20083;-84
2022/06/20 03:36:34;;;;;;;9.30;2.13;;;12.50;99.90;;;;;;4180422;28;20090;-83
2022/06/20 03:38:37;;;;;;;12.82;2.33;;;12.40;99.90;;;;;;4180545;28;20049;-83
2022/06/20 03:40:39;;;;;;;5.53;1.60;;;12.40;99.90;;;;;;4180364;28;20049;-83
2022/06/20 03:42:40;;;;;;;5.88;1.50;;;12.50;99.90;;;;;;4180687;28;20037;-83
2022/06/20 03:44:50;;;;;;;4.80;1.50;;;12.50;99.90;;;;;;4181576;28;20048;-83
2022/06/20 03:47:13;;;;;;;4.53;1.23;;;12.50;99.90;;;;;;4180969;28;20053;-83
2022/06/20 03:49:26;;;;;;;3.90;1.40;;;12.50;99.90;;;;;;4180683;28;20076;-83
2022/06/20 03:51:37;;;;;;;8.13;1.50;;;12.60;99.90;;;;;;4180059;28;20162;-84
2022/06/20 03:53:50;;;;;;;4.00;1.65;;;12.60;99.90;;;;;;4180845;28;20124;-83
2022/06/20 03:56:00;;;;;;;3.50;1.67;;;12.60;99.90;;;;;;4181398;28;20067;-83
2022/06/20 03:58:31;;;;;;;14.68;3.53;;;12.70;99.90;;;;;;4181710;28;20041;-83
2022/06/20 04:00:53;;;;;;;10.15;2.15;;;12.70;99.90;;;;;;4194097;28;20114;-84
2022/06/20 04:03:20;;;;;;;8.10;1.90;;;12.60;99.90;;;;;;4197769;28;20053;-84
2022/06/20 04:05:41;;;;;;;13.63;2.35;;;12.70;99.90;;;;;;4195135;28;20076;-84
2022/06/20 04:07:56;;;;;;;6.25;1.40;;;12.60;99.90;;;;;;4198486;28;20503;-85
2022/06/20 04:10:58;;;;;;;9.20;1.77;;;12.60;99.90;;;;;;4203021;28;20025;-85
2022/06/20 04:12:47;;;;;;;6.13;2.55;;;12.70;99.90;;;;;;4214386;28;20088;-84
2022/06/20 04:15:01;;;;;;;6.60;1.50;;;12.70;99.90;;;;;;4203597;28;20044;-84
2022/06/20 04:19:38;;;;;;;6.57;1.95;;;12.80;99.90;;;;;;4212829;28;20032;-84
2022/06/20 04:21:46;;;;;;;6.00;1.50;;;12.80;99.90;;;;;;4209225;28;20079;-83
2022/06/20 04:23:52;;;;;;;5.70;1.88;;;12.80;99.90;;;;;;4191245;28;20111;-83
2022/06/20 04:26:07;;;;;;;7.90;1.70;;;12.80;99.90;;;;;;4199044;28;20100;-83
2022/06/20 04:28:40;;;;;;;7.75;1.67;;;12.80;99.90;;;;;;4198086;28;20056;-84
2022/06/20 04:30:51;;;;;;;6.20;1.73;;;12.80;99.90;;;;;;4188586;28;20512;-84
2022/06/20 04:32:57;;;;;;;8.75;2.05;;;12.80;99.90;;;;;;4179717;28;20037;-84
2022/06/20 04:35:04;;;;;;;8.10;2.95;;;12.80;99.90;;;;;;4197576;28;20054;-84
2022/06/20 04:37:24;;;;;;;7.47;1.83;;;12.90;99.90;;;;;;4203000;28;20040;-84
2022/06/20 04:39:51;;;;;;;6.53;1.83;;;12.90;99.90;;;;;;4195960;28;20052;-84
2022/06/20 04:42:12;;;;;;;6.95;1.88;;;12.80;99.90;;;;;;4196411;28;20532;-84
2022/06/20 04:44:22;;;;;;;8.40;2.08;;;12.90;99.90;;;;;;4198479;28;20048;-84
2022/06/20 04:46:33;;;;;;;8.63;1.80;;;12.90;99.90;;;;;;4200232;28;20511;-84
2022/06/20 04:48:33;;;;;;;7.65;2.03;;;12.90;99.90;;;;;;4200357;28;20079;-84
2022/06/20 04:50:35;;;;;;;10.77;1.83;;;12.90;99.90;;;;;;4200693;28;20059;-84
2022/06/20 04:52:36;;;;;;;7.72;2.13;;;12.80;99.90;;;;;;4200037;28;20516;-83
2022/06/20 04:54:38;;;;;;;6.20;2.03;;;12.80;99.90;;;;;;4200220;28;20047;-83
2022/06/20 04:56:39;;;;;;;7.47;2.33;;;12.80;99.90;;;;;;4199990;28;20374;-83
2022/06/20 04:58:48;;;;;;;5.82;1.95;;;12.70;99.90;;;;;;4199607;28;20070;-83
2022/06/20 05:00:52;;;;;;;10.07;1.85;;;12.70;99.90;;;;;;4199613;28;20485;-83
2022/06/20 05:02:55;;;;;;;6.50;1.70;;;12.70;99.90;;;;;;4165788;28;20053;-84
2022/06/20 05:04:59;;;;;;;8.27;1.90;;;12.80;99.90;;;;;;4199342;28;20408;-84
2022/06/20 05:07:05;;;;;;;6.90;1.80;;;12.80;99.90;;;;;;4198351;28;20052;-83
2022/06/20 05:09:16;;;;;;;7.05;2.10;;;12.80;99.90;;;;;;4199600;28;20052;-83
2022/06/20 05:11:26;;;;;;;5.03;1.85;;;13.10;99.90;;;;;;4199338;28;20049;-84
2022/06/20 05:13:35;;;;;;;4.68;1.77;;;12.80;99.90;;;;;;4200531;28;20051;-84
2022/06/20 05:15:40;;;;;;;;;;;13.00;99.90;;;;;;4196732;28;20158;-84
2022/06/20 05:17:42;;;;;;;6.85;2.30;;;13.00;99.90;;;;;;4184772;28;19928;-84
2022/06/20 05:19:46;;;;;;;7.10;1.92;;;13.10;99.90;;;;;;4199033;28;20045;-85
2022/06/20 05:21:51;;;;;;;9.57;2.30;;;13.10;99.90;;;;;;4196002;28;20063;-84
2022/06/20 05:23:58;;;;;;;7.30;2.35;;;13.20;99.90;;;;;;4181260;28;20107;-84
2022/06/20 05:26:00;;;;;;;8.68;2.42;;;13.30;99.90;;;;;;4182393;28;20056;-84
2022/06/20 05:28:05;;;;;;;11.32;2.67;;;13.30;99.90;;;;;;4182755;28;20101;-84
2022/06/20 05:30:07;;;;;;;13.20;2.60;;;13.40;99.90;;;;;;4180757;28;20051;-85
2022/06/20 05:32:14;;;;;;;6.93;2.13;;;13.40;99.90;;;;;;4182488;28;20045;-84
2022/06/20 05:34:23;;;;;;;8.30;2.58;;;13.40;99.90;;;;;;4187876;28;20048;-84
2022/06/20 05:36:49;;;;;;;7.00;2.28;;;13.50;99.90;;;;;;4199128;28;20044;-84
2022/06/20 05:39:07;;;;;;;10.25;3.05;;;13.60;99.90;;;;;;4197265;28;20115;-84
2022/06/20 05:41:13;;;;;;;10.50;2.58;;;13.80;99.90;;;;;;4198815;28;20044;-85
2022/06/20 05:43:17;;;;;;;7.60;2.38;;;13.90;99.90;;;;;;4196235;28;20176;-84
2022/06/20 05:45:21;;;;;;;8.50;3.10;;;14.10;99.90;;;;;;4195638;28;20047;-84
2022/06/20 05:47:26;;;;;;;6.32;2.10;;;14.20;99.90;;;;;;4181328;28;20053;-84
2022/06/20 05:49:32;;;;;;;9.73;2.75;;;14.20;99.90;;;;;;4182574;28;20045;-84
2022/06/20 05:51:38;;;;;;;9.98;2.67;;;14.30;99.90;;;;;;4182219;28;20052;-84
2022/06/20 05:53:44;;;;;;;8.40;2.13;;;14.40;99.90;;;;;;4181879;28;20406;-84
2022/06/20 05:55:48;;;;;;;7.57;1.92;;;14.40;99.90;;;;;;4181225;28;20524;-84
2022/06/20 05:57:50;;;;;;;9.77;2.42;;;14.40;99.90;;;;;;4182121;28;20381;-84
2022/06/20 05:59:59;;;;;;;7.30;2.22;;;14.40;99.90;;;;;;4182398;28;20124;-84
2022/06/20 06:02:21;;;;;;;9.15;2.45;;;14.50;99.90;;;;;;4170321;28;20539;-84
2022/06/20 06:04:39;;;;;;;8.90;2.45;;;14.50;99.90;;;;;;4197299;28;20049;-84
2022/06/20 06:06:47;;;;;;;12.18;2.03;;;14.60;99.90;;;;;;4199171;28;20049;-85
2022/06/20 06:09:00;;;;;;;9.18;2.17;;;14.70;99.90;;;;;;4197320;28;20052;-85
2022/06/20 06:11:21;;;;;;;10.32;3.15;;;14.70;99.90;;;;;;4198762;28;20040;-85
2022/06/20 06:13:30;;;;;;;10.43;2.13;;;14.80;99.90;;;;;;4198902;28;20044;-84
2022/06/20 06:15:38;;;;;;;;;;;15.00;99.90;;;;;;4198416;28;20110;-84
2022/06/20 06:17:50;;;;;;;6.55;2.40;;;15.10;99.90;;;;;;4197838;28;19986;-84
2022/06/20 06:20:01;;;;;;;9.65;2.40;;;15.30;99.90;;;;;;4197005;28;20048;-85
2022/06/20 06:22:06;;;;;;;7.57;2.38;;;15.40;99.90;;;;;;4198308;28;20049;-84
2022/06/20 06:24:10;;;;;;;8.95;2.53;;;15.50;99.90;;;;;;4197132;28;20056;-84
2022/06/20 06:26:15;;;;;;;9.95;2.00;;;15.50;99.90;;;;;;4197862;28;20043;-84
2022/06/20 06:28:19;;;;;;;11.93;2.97;;;15.50;99.90;;;;;;4197197;28;20053;-84
2022/06/20 06:30:27;;;;;;;11.23;1.98;;;15.50;99.90;;;;;;4198070;28;20097;-84
2022/06/20 06:32:49;;;;;;;11.50;1.80;;;15.50;99.90;;;;;;4198139;28;20119;-85
2022/06/20 06:34:57;;;;;;;10.85;1.75;;;15.60;99.90;;;;;;4178931;28;20512;-84
2022/06/20 06:37:03;;;;;;;7.35;1.83;;;15.70;99.90;;;;;;4181873;28;20072;-85
2022/06/20 06:39:06;;;;;;;6.95;2.17;;;15.90;99.40;;;;;;4180197;28;20132;-86
2022/06/20 06:41:17;;;;;;;10.57;2.47;;;16.10;98.90;;;;;;4182063;28;20053;-84
2022/06/20 06:43:28;;;;;;;9.95;1.80;;;16.20;98.60;;;;;;4180296;28;20061;-85
2022/06/20 06:45:33;;;;;;;11.05;2.78;;;16.20;98.40;;;;;;4181533;28;20405;-85
2022/06/20 06:47:40;;;;;;;10.40;2.15;;;16.30;98.40;;;;;;4190423;28;20622;-85
2022/06/20 06:49:47;;;;;;;6.80;1.85;;;16.40;98.40;;;;;;4192605;28;20045;-84
2022/06/20 06:52:19;;;;;;;8.43;1.80;;;16.50;97.90;;;;;;4197281;28;20485;-84
2022/06/20 06:54:30;;;;;;;8.20;2.58;;;16.70;97.10;;;;;;4196711;28;20493;-83
2022/06/20 06:56:34;;;;;;;10.57;2.22;;;16.80;97.20;;;;;;4196651;28;20044;-84
2022/06/20 06:58:44;;;;;;;7.85;2.60;;;16.80;97.10;;;;;;4196332;28;20052;-83
2022/06/20 07:01:07;;;;;;;8.68;1.77;;;16.80;96.90;;;;;;4194806;28;20044;-84
2022/06/20 07:03:32;;;;;;;7.15;2.03;;;16.90;96.90;;;;;;4189897;28;20089;-84
2022/06/20 07:05:36;;;;;;;8.88;2.38;;;16.90;96.50;;;;;;4196449;28;20049;-84
2022/06/20 07:08:00;;;;;;;4.70;1.38;;;16.70;97.20;;;;;;4184749;28;20041;-84
2022/06/20 07:10:02;;;;;;;6.68;2.03;;;16.60;96.80;;;;;;4180664;28;20535;-84
2022/06/20 07:12:33;;;;;;;9.30;1.55;;;16.50;97.10;;;;;;4181219;28;20150;-84
2022/06/20 07:14:40;;;;;;;4.95;1.50;;;16.50;96.80;;;;;;4179822;28;20053;-84
2022/06/20 07:17:25;;;;;;;7.82;1.83;;;16.60;96.80;;;;;;4179443;28;20049;-84
2022/06/20 07:19:26;;;;;;;6.28;1.63;;;16.90;96.70;;;;;;4168189;28;20049;-84
2022/06/20 07:21:30;;;;;;;7.70;2.05;;;17.00;96.20;;;;;;4180991;28;20142;-84
2022/06/20 07:23:31;;;;;;;5.63;1.70;;;16.90;95.90;;;;;;4180516;28;20529;-84
2022/06/20 07:25:35;;;;;;;9.45;1.50;;;16.90;95.90;;;;;;4180569;28;20045;-83
2022/06/20 07:27:46;;;;;;;8.43;1.63;;;16.90;96.10;;;;;;4180997;28;20468;-83
2022/06/20 07:30:12;;;;;;;8.98;2.50;;;16.80;96.00;;;;;;4180627;28;20041;-84
2022/06/20 07:32:19;;;;;;;16.90;2.25;;;16.60;94.60;;;;;;4176576;28;20052;-84
2022/06/20 07:34:36;;;;;;;4.10;1.30;;;16.50;95.80;;;;;;4179789;28;20041;-82
2022/06/20 07:36:43;;;;;;;6.70;1.63;;;16.60;95.90;;;;;;4180659;28;20090;-83
2022/06/20 07:38:58;;;;;;;8.07;1.75;;;16.80;96.10;;;;;;4179131;28;20080;-83
2022/06/20 07:41:09;;;;;;;6.82;1.52;;;16.80;95.90;;;;;;4180376;28;20514;-84
2022/06/20 07:43:35;;;;;;;10.65;1.45;;;16.90;95.80;;;;;;4180930;28;20119;-84
2022/06/20 07:45:43;;;;;;;6.50;1.35;;;17.10;95.10;;;;;;4180293;28;20489;-84
2022/06/20 07:47:50;;;;;;;6.03;1.20;;;17.20;95.10;;;;;;4180304;28;20045;-84
2022/06/20 07:49:54;;;;;;;4.82;1.25;;;17.20;94.80;;;;;;4180612;28;20123;-84
2022/06/20 07:51:58;;;;;;;6.50;1.33;;;17.10;94.90;;;;;;4180544;28;20075;-84
2022/06/20 07:54:08;;;;;;;4.32;1.27;;;17.00;95.10;;;;;;4180543;28;20107;-84
2022/06/20 07:56:23;;;;;;;5.45;1.65;;;17.10;95.00;;;;;;4180584;28;20497;-84
2022/06/20 07:58:31;;;;;;;3.67;0.90;;;17.30;94.60;;;;;;4180193;28;20049;-84
2022/06/20 08:00:41;;;;;;;2.13;1.25;;;17.50;94.20;;;;;;4180467;28;20382;-84
2022/06/20 08:03:07;;;;;;;5.53;1.10;;;17.70;94.00;;;;;;4180007;28;20045;-84
2022/06/20 08:05:24;;;;;;;3.53;0.63;;;18.00;93.10;;;;;;4180076;28;20503;-84
2022/06/20 08:07:36;;;;;;;1.92;0.80;;;18.20;93.00;;;;;;4179950;28;20076;-84
2022/06/20 08:09:56;;;;;;;4.03;1.00;;;18.50;92.70;;;;;;4179532;28;20069;-84
2022/06/20 08:12:15;;;;;;;6.72;1.00;;;18.70;92.10;;;;;;4178914;28;20124;-84
2022/06/20 08:14:36;;;;;;;2.50;0.98;;;19.00;91.30;;;;;;4179853;28;20551;-84
2022/06/20 08:16:38;;;;;;;2.80;1.02;;;19.30;90.90;;;;;;4179544;28;20104;-84
2022/06/20 08:18:39;;;;;;;6.47;0.95;;;19.50;90.80;;;;;;4181185;28;20481;-84
2022/06/20 08:20:44;;;;;;;5.82;1.10;;;19.70;90.50;;;;;;4183144;28;20116;-84
2022/06/20 08:22:53;;;;;;;3.30;1.10;;;19.70;90.30;;;;;;4182739;28;20045;-84
2022/06/20 08:24:55;;;;;;;;;;;19.60;89.90;;;;;;4183363;28;20053;-85
2022/06/20 08:27:03;;;;;;;3.90;1.08;;;19.70;85.60;;;;;;4183150;28;19963;-85
2022/06/20 08:29:10;;;;;;;3.83;1.02;;;19.80;89.40;;;;;;4182986;28;20540;-85
2022/06/20 08:31:40;;;;;;;6.18;1.45;;;20.00;88.70;;;;;;4183106;28;20045;-83
2022/06/20 08:33:50;;;;;;;4.97;1.00;;;20.30;84.50;;;;;;4182468;28;20060;-84
2022/06/20 08:35:57;;;;;;;5.07;1.15;;;20.30;86.20;;;;;;4181033;28;20124;-84
2022/06/20 08:38:10;;;;;;;3.55;0.95;;;20.30;87.10;;;;;;4182849;28;20041;-84
2022/06/20 08:40:19;;;;;;;4.15;1.27;;;20.10;87.30;;;;;;4182560;28;20080;-84
2022/06/20 08:42:37;;;;;;;2.22;0.98;;;20.10;87.50;;;;;;4182848;28;20084;-84
2022/06/20 08:45:09;;;;;;;3.13;0.98;;;20.30;86.50;;;;;;4182099;28;20060;-84
2022/06/20 08:47:24;;;;;;;5.70;0.90;;;20.30;86.10;;;;;;4182642;28;20052;-84
2022/06/20 08:49:56;;;;;;;4.60;0.82;;;20.30;84.00;;;;;;4182721;28;20036;-84
2022/06/20 08:52:08;;;;;;;5.97;1.27;;;20.00;83.30;;;;;;4182594;28;20488;-84
2022/06/20 08:54:23;;;;;;;4.15;1.10;;;19.70;86.00;;;;;;4182631;28;20041;-84
2022/06/20 08:56:51;;;;;;;3.40;1.50;;;19.70;85.40;;;;;;4181011;28;20057;-84
2022/06/20 08:59:05;;;;;;;3.92;1.30;;;19.80;83.90;;;;;;4180526;28;20075;-84
2022/06/20 09:01:05;;;;;;;4.10;0.90;;;19.90;81.70;;;;;;4182408;28;20129;-84
2022/06/20 09:03:25;;;;;;;3.33;0.95;;;19.90;83.20;;;;;;4181167;28;20497;-84
2022/06/20 09:05:58;;;;;;;3.60;0.85;;;20.10;82.10;;;;;;4182562;28;20133;-84
2022/06/20 09:08:01;;;;;;;2.10;0.80;;;20.30;82.10;;;;;;4180585;28;20060;-84
2022/06/20 09:10:29;;;;;;;2.72;0.85;;;20.50;82.50;;;;;;4182026;28;20047;-84
2022/06/20 09:13:29;;;;;;;1.50;1.00;;;20.40;80.80;;;;;;4181986;28;20041;-83
2022/06/20 09:15:42;;;;;;;3.40;0.70;;;20.50;79.30;;;;;;4158290;28;20577;-84
2022/06/20 09:18:08;;;;;;;2.95;0.80;;;20.60;80.40;;;;;;4182176;28;20520;-84
2022/06/20 09:20:21;;;;;;;4.20;0.75;;;20.90;73.80;;;;;;4182214;28;20076;-84
2022/06/20 09:22:41;;;;;;;3.40;1.00;;;21.20;75.10;;;;;;4182536;28;20401;-85
2022/06/20 09:25:24;;;;;;;1.27;0.63;;;21.50;74.90;;;;;;4182154;28;20079;-84
2022/06/20 09:27:53;;;;;;;4.10;0.85;;;21.70;72.50;;;;;;4181759;28;20420;-85
2022/06/20 09:30:16;;;;;;;3.58;0.73;;;21.80;73.40;;;;;;4180913;28;20060;-84
2022/06/20 09:32:35;;;;;;;2.97;1.15;;;21.90;73.30;;;;;;4181298;28;20120;-84
2022/06/20 09:34:43;;;;;;;2.42;0.93;;;22.10;69.70;;;;;;4181785;28;20044;-84
2022/06/20 09:37:21;;;;;;;3.83;0.70;;;22.00;73.00;;;;;;4182494;28;20052;-84
2022/06/20 09:39:52;;;;;;;1.08;0.60;;;22.10;69.20;;;;;;4181771;28;20106;-84
2022/06/20 09:41:56;;;;;;;2.90;1.27;;;22.20;71.20;;;;;;4182526;28;20561;-84
2022/06/20 09:44:18;;;;;;;1.23;0.40;;;22.50;72.30;;;;;;4181941;28;20052;-85
2022/06/20 09:46:22;;;;;;;10.85;2.10;;;22.70;70.40;;;;;;4182132;28;20091;-85
2022/06/20 09:48:52;;;;;;;3.67;0.80;;;22.60;71.00;;;;;;4182333;28;20049;-84
2022/06/20 09:50:53;;;;;;;4.20;1.42;;;22.30;68.30;;;;;;4182541;28;20510;-84
2022/06/20 09:53:05;;;;;;;3.92;0.98;;;22.00;71.20;;;;;;4180416;28;20084;-84
2022/06/20 09:55:22;;;;;;;2.15;0.85;;;22.00;71.00;;;;;;4182386;28;20045;-84
2022/06/20 09:57:44;;;;;;;6.13;0.70;;;22.00;69.50;;;;;;4182215;28;20076;-84
2022/06/20 09:59:58;;;;;;;2.92;0.70;;;22.00;70.80;;;;;;4182259;28;20075;-84
2022/06/20 10:02:25;;;;;;;3.20;0.95;;;22.20;70.00;;;;;;4181054;28;20049;-84
2022/06/20 10:04:48;;;;;;;3.78;0.82;;;22.40;69.30;;;;;;4181913;28;20094;-84
2022/06/20 10:07:08;;;;;;;1.80;0.65;;;22.70;69.30;;;;;;4181981;28;20048;-84
2022/06/20 10:09:20;;;;;;;5.13;1.45;;;23.00;68.20;;;;;;4181933;28;20047;-84
2022/06/20 10:12:04;;;;;;;5.07;0.80;;;23.10;68.40;;;;;;4182411;28;20401;-85
2022/06/20 10:14:38;;;;;;;3.40;0.90;;;23.30;67.50;;;;;;4180764;28;20053;-83
2022/06/20 10:16:57;;;;;;;2.60;1.40;;;23.60;65.50;;;;;;4181650;28;20140;-84
2022/06/20 10:19:01;;;;;;;;;;;23.50;66.30;;;;;;4181631;28;20083;-83
2022/06/20 10:21:04;;;;;;;5.38;0.70;;;23.50;61.70;;;;;;4181831;28;20423;-85
2022/06/20 10:23:17;;;;;;;2.95;0.70;;;23.70;67.70;;;;;;4181890;28;20045;-84
2022/06/20 10:25:17;;;;;;;4.18;0.85;;;23.80;64.20;;;;;;4181775;28;20081;-85
2022/06/20 10:27:41;;;;;;;2.50;0.90;;;23.80;66.30;;;;;;4181770;28;20119;-84
2022/06/20 10:29:57;;;;;;;7.25;1.20;;;24.00;63.90;;;;;;4180504;28;20049;-84
2022/06/20 10:32:20;;;;;;;4.50;1.65;;;24.10;63.70;;;;;;4180874;28;20106;-84
2022/06/20 10:34:30;;;;;;;10.27;1.77;;;24.20;61.40;;;;;;4182436;28;20133;-85
2022/06/20 10:36:39;;;;;;;5.70;0.70;;;24.30;63.60;;;;;;4181541;28;20045;-84
2022/06/20 10:38:51;;;;;;;3.25;1.08;;;24.20;61.20;;;;;;4181200;28;20052;-84
2022/06/20 10:41:04;;;;;;;2.00;0.80;;;24.00;63.90;;;;;;4181075;28;20049;-84
2022/06/20 10:43:15;;;;;;;3.33;0.73;;;24.00;60.80;;;;;;4180843;28;20049;-83
2022/06/20 10:45:28;;;;;;;4.22;1.13;;;24.20;62.40;;;;;;4181443;28;20056;-84
2022/06/20 10:47:55;;;;;;;7.47;1.00;;;24.40;61.20;;;;;;4181185;28;20124;-84
2022/06/20 10:50:21;;;;;;;3.95;1.20;;;24.30;60.10;;;;;;4168746;28;20049;-84
2022/06/20 10:52:54;;;;;;;5.15;0.85;;;24.40;59.00;;;;;;4180764;28;20448;-84
2022/06/20 10:55:15;;;;;;;4.53;0.95;;;24.60;59.70;;;;;;4180925;28;20161;-84
2022/06/20 10:57:37;;;;;;;3.35;0.80;;;24.80;59.50;;;;;;4179562;28;20044;-85
2022/06/20 11:00:06;;;;;;;1.77;1.20;;;24.70;58.40;;;;;;4180848;28;20111;-84
2022/06/20 11:02:33;;;;;;;2.47;1.02;;;24.80;60.60;;;;;;4178175;28;20056;-84
2022/06/20 11:04:54;;;;;;;3.38;1.00;;;25.00;58.00;;;;;;4169829;28;20447;-83
2022/06/20 11:07:07;;;;;;;1.80;0.70;;;25.00;59.00;;;;;;4163746;28;20557;-84
2022/06/20 11:09:40;;;;;;;2.47;0.88;;;25.30;57.10;;;;;;4181327;28;20370;-84
2022/06/20 11:12:10;;;;;;;3.35;0.95;;;25.50;56.70;;;;;;4176489;28;20506;-84
2022/06/20 11:14:16;;;;;;;3.20;1.20;;;25.50;55.80;;;;;;4181163;28;20041;-84
2022/06/20 11:16:29;;;;;;;3.78;0.63;;;25.50;58.70;;;;;;4181610;28;20443;-84
2022/06/20 11:18:55;;;;;;;2.35;0.90;;;25.60;58.40;;;;;;4179255;28;20049;-84
2022/06/20 11:21:14;;;;;;;3.55;0.80;;;25.50;56.30;;;;;;4181010;28;20048;-84
2022/06/20 11:23:19;;;;;;;2.58;0.80;;;25.20;57.30;;;;;;4180706;28;20053;-84
2022/06/20 11:25:22;;;;;;;2.85;0.93;;;25.00;58.30;;;;;;4180543;28;20049;-84
2022/06/20 11:27:59;;;;;;;3.70;0.82;;;25.10;58.20;;;;;;4180800;28;20402;-84
2022/06/20 11:29:59;;;;;;;4.93;1.17;;;25.10;52.30;;;;;;4162280;28;20057;-83
2022/06/20 11:32:30;;;;;;;2.42;1.00;;;25.40;57.10;;;;;;4180064;28;20107;-85